Time;durP1;ratioP1;P1;durP2;ratioP2;P2;SDS_P1;SDS_P2;PMS_P1;PMS_P2;Temp;Humidity;BMP_temperature;BMP_pressure;BME280_temperature;BME280_humidity;BME280_pressure;Samples;Min_cycle;Max_cycle;Signal;HPM_P1;HPM_P2
2022/11/24 00:01:00;;;;;;;;;;;;;;;41.69;nan;101573.47;5075641;28;19927;-57
2022/11/24 00:03:27;;;;;;;;;;;;;;;41.48;nan;101569.25;5071738;28;19921;-57
2022/11/24 00:05:53;;;;;;;;;;;;;;;41.29;nan;101562.53;5075656;28;20362;-57
2022/11/24 00:08:19;;;;;;;;;;;;;;;41.21;nan;101564.00;5075235;28;19981;-57
2022/11/24 00:10:45;;;;;;;;;;;;;;;41.11;nan;101562.28;5075482;28;19962;-57
2022/11/24 00:13:12;;;;;;;;;;;;;;;40.94;nan;101565.25;5075520;28;20420;-57
2022/11/24 00:15:38;;;;;;;;;;;;;;;40.84;nan;101559.88;5075420;28;20371;-57
2022/11/24 00:18:04;;;;;;;;;;;;;;;40.79;nan;101566.13;5072121;28;19921;-57
2022/11/24 00:20:30;;;;;;;;;;;;;;;40.68;nan;101575.78;5075175;28;19942;-58
2022/11/24 00:22:57;;;;;;;;;;;;;;;40.50;nan;101563.31;5076895;28;19978;-57
2022/11/24 00:25:23;;;;;;;;;;;;;;;40.41;nan;101566.84;5077435;28;19920;-58
2022/11/24 00:27:51;;;;;;;;;;;;;;;40.34;nan;101562.09;5074302;28;19928;-57
2022/11/24 00:30:17;;;;;;;;;;;;;;;40.21;nan;101557.59;5078758;28;19921;-57
2022/11/24 00:32:43;;;;;;;;;;;;;;;40.05;nan;101567.03;5080581;28;19920;-57
2022/11/24 00:35:10;;;;;;;;;;;;;;;39.74;nan;101556.00;5078683;28;19916;-57
2022/11/24 00:37:36;;;;;;;;;;;;;;;39.58;nan;101553.19;5075571;28;20325;-57
2022/11/24 00:40:02;;;;;;;;;;;;;;;39.32;nan;101557.06;5081592;28;19932;-57
2022/11/24 00:42:29;;;;;;;;;;;;;;;39.15;nan;101557.06;5078239;28;19927;-57
2022/11/24 00:44:55;;;;;;;;;;;;;;;39.20;nan;101565.06;5075133;28;20003;-57
2022/11/24 00:47:21;;;;;;;;;;;;;;;38.96;nan;101563.56;5080577;28;19927;-57
2022/11/24 00:49:48;;;;;;;;;;;;;;;38.68;nan;101574.34;5086988;28;20389;-57
2022/11/24 00:52:14;;;;;;;;;;;;;;;38.62;nan;101573.22;5068246;28;20003;-57
2022/11/24 00:54:40;;;;;;;;;;;;;;;38.59;nan;101576.13;5069365;28;20428;-56
2022/11/24 00:57:07;;;;;;;;;;;;;;;38.26;nan;101580.88;5073240;28;19928;-57
2022/11/24 00:59:33;;;;;;;;;;;;;;;38.20;nan;101576.91;5073900;28;19977;-58
2022/11/24 01:01:59;;;;;;;;;;;;;;;38.11;nan;101580.31;5067998;28;19997;-56
2022/11/24 01:04:25;;;;;;;;;;;;;;;38.11;nan;101580.31;5069512;28;19927;-56
2022/11/24 01:06:52;;;;;;;;;;;;;;;38.12;nan;101581.09;5072962;28;19980;-56
2022/11/24 01:09:18;;;;;;;;;;;;;;;37.95;nan;101581.00;5065094;28;20282;-56
2022/11/24 01:12:03;;;;;;;;;;;;;;;37.88;nan;101577.47;5069162;28;19960;-56
2022/11/24 01:14:29;;;;;;;;;;;;;;;37.72;nan;101581.00;5071835;28;19925;-56
2022/11/24 01:16:56;;;;;;;;;;;;;;;37.64;nan;101573.81;5069351;28;19962;-56
2022/11/24 01:19:22;;;;;;;;;;;;;;;37.46;nan;101569.25;5069421;28;19931;-56
2022/11/24 01:21:48;;;;;;;;;;;;;;;37.27;nan;101583.34;5069588;28;19920;-56
2022/11/24 01:24:15;;;;;;;;;;;;;;;37.23;nan;101589.03;5073124;28;19977;-57
2022/11/24 01:26:41;;;;;;;;;;;;;;;37.14;nan;101597.25;5074185;28;19944;-57
2022/11/24 01:29:09;;;;;;;;;;;;;;;37.02;nan;101589.34;5074885;28;19916;-56
2022/11/24 01:31:35;;;;;;;;;;;;;;;36.83;nan;101588.78;5071121;28;20009;-57
2022/11/24 01:34:02;;;;;;;;;;;;;;;36.56;nan;101590.72;5063208;28;20240;-57
2022/11/24 01:36:28;;;;;;;;;;;;;;;36.40;nan;101599.78;5063830;28;19921;-57
2022/11/24 01:38:54;;;;;;;;;;;;;;;36.50;nan;101603.75;5068754;28;19928;-58
2022/11/24 01:41:22;;;;;;;;;;;;;;;36.34;nan;101595.03;5068808;28;19927;-58
2022/11/24 01:43:49;;;;;;;;;;;;;;;36.28;nan;101606.00;5064077;28;19921;-58
2022/11/24 01:46:15;;;;;;;;;;;;;;;36.28;nan;101609.63;5064771;28;19947;-58
2022/11/24 01:48:45;;;;;;;;;;;;;;;36.37;nan;101605.50;5065246;28;20294;-57
2022/11/24 01:51:38;;;;;;;;;;;;;;;36.32;nan;101603.94;5066843;28;20391;-57
2022/11/24 01:54:10;;;;;;;;;;;;;;;36.35;nan;101610.78;5066020;28;19964;-57
2022/11/24 01:56:39;;;;;;;;;;;;;;;36.33;nan;101616.06;5066973;28;19920;-57
2022/11/24 01:59:06;;;;;;;;;;;;;;;35.96;nan;101615.59;5068383;28;19978;-57
2022/11/24 02:01:33;;;;;;;;;;;;;;;35.63;nan;101608.56;5063884;28;20035;-57
2022/11/24 02:04:00;;;;;;;;;;;;;;;35.97;nan;101616.41;5055191;28;19924;-57
2022/11/24 02:06:28;;;;;;;;;;;;;;;36.08;nan;101616.28;5060537;28;20023;-58
2022/11/24 02:09:13;;;;;;;;;;;;;;;36.13;nan;101618.69;5054712;28;20224;-57
2022/11/24 02:11:40;;;;;;;;;;;;;;;35.96;nan;101618.44;5057269;28;19955;-57
2022/11/24 02:14:09;;;;;;;;;;;;;;;35.81;nan;101614.06;5060353;28;19921;-59
2022/11/24 02:16:36;;;;;;;;;;;;;;;35.79;nan;101624.22;5061796;28;19925;-58
2022/11/24 02:19:08;;;;;;;;;;;;;;;35.65;nan;101614.59;5061067;28;20371;-58
2022/11/24 02:21:35;;;;;;;;;;;;;;;35.70;nan;101619.81;5059414;28;19933;-58
2022/11/24 02:24:01;;;;;;;;;;;;;;;35.67;nan;101623.47;5058225;28;20367;-58
2022/11/24 02:26:38;;;;;;;;;;;;;;;35.32;nan;101632.97;5057402;28;20325;-59
2022/11/24 02:29:04;;;;;;;;;;;;;;;35.33;nan;101628.94;5062731;28;19921;-57
2022/11/24 02:31:30;;;;;;;;;;;;;;;35.40;nan;101634.59;5064347;28;19916;-58
2022/11/24 02:33:57;;;;;;;;;;;;;;;35.28;nan;101642.72;5059114;28;19921;-58
2022/11/24 02:36:23;;;;;;;;;;;;;;;35.24;nan;101634.25;5056134;28;19935;-58
2022/11/24 02:38:49;;;;;;;;;;;;;;;35.26;nan;101645.16;5064578;28;20361;-58
2022/11/24 02:41:18;;;;;;;;;;;;;;;35.46;nan;101649.09;5064982;28;20323;-58
2022/11/24 02:43:48;;;;;;;;;;;;;;;35.23;nan;101645.97;5053627;28;19920;-57
2022/11/24 02:46:14;;;;;;;;;;;;;;;35.23;nan;101651.63;5057824;28;19952;-58
2022/11/24 02:48:40;;;;;;;;;;;;;;;35.23;nan;101645.97;5061235;28;20684;-57
2022/11/24 02:51:07;;;;;;;;;;;;;;;34.91;nan;101652.56;5060305;28;19948;-58
2022/11/24 02:53:33;;;;;;;;;;;;;;;33.94;nan;101646.28;5059693;28;19935;-57
2022/11/24 02:55:59;;;;;;;;;;;;;;;34.82;nan;101644.50;5061902;28;19917;-57
2022/11/24 02:58:25;;;;;;;;;;;;;;;34.99;nan;101642.84;5059871;28;19921;-58
2022/11/24 03:00:53;;;;;;;;;;;;;;;35.11;nan;101642.38;5065048;28;19925;-59
2022/11/24 03:03:23;;;;;;;;;;;;;;;35.00;nan;101626.69;5061720;28;19963;-57
2022/11/24 03:05:49;;;;;;;;;;;;;;;34.97;nan;101639.63;5063460;28;19924;-57
2022/11/24 03:08:15;;;;;;;;;;;;;;;34.93;nan;101633.19;5059838;28;19925;-57
2022/11/24 03:10:42;;;;;;;;;;;;;;;34.91;nan;101632.81;5068645;28;19957;-57
2022/11/24 03:13:08;;;;;;;;;;;;;;;34.94;nan;101637.63;5071383;28;19967;-57
2022/11/24 03:15:34;;;;;;;;;;;;;;;34.67;nan;101647.81;5071787;28;19951;-57
2022/11/24 03:18:01;;;;;;;;;;;;;;;34.57;nan;101649.44;5068039;28;20341;-57
2022/11/24 03:20:27;;;;;;;;;;;;;;;34.64;nan;101659.88;5072117;28;19924;-57
2022/11/24 03:22:53;;;;;;;;;;;;;;;34.53;nan;101651.47;5064917;28;20050;-57
2022/11/24 03:25:20;;;;;;;;;;;;;;;34.53;nan;101655.09;5069943;28;19920;-57
2022/11/24 03:27:46;;;;;;;;;;;;;;;34.55;nan;101663.16;5064018;28;19943;-57
2022/11/24 03:30:13;;;;;;;;;;;;;;;34.54;nan;101668.00;5062592;28;19924;-57
2022/11/24 03:32:40;;;;;;;;;;;;;;;34.61;nan;101669.19;5062753;28;20283;-56
2022/11/24 03:35:07;;;;;;;;;;;;;;;34.37;nan;101668.03;5061197;28;20387;-56
2022/11/24 03:37:33;;;;;;;;;;;;;;;34.43;nan;101669.22;5063377;28;19920;-57
2022/11/24 03:39:59;;;;;;;;;;;;;;;34.38;nan;101670.44;5059402;28;20016;-57
2022/11/24 03:42:26;;;;;;;;;;;;;;;34.25;nan;101672.03;5062421;28;20037;-58
2022/11/24 03:44:52;;;;;;;;;;;;;;;34.18;nan;101675.69;5064492;28;19929;-57
2022/11/24 03:47:18;;;;;;;;;;;;;;;34.12;nan;101673.69;5065742;28;19920;-57
2022/11/24 03:49:45;;;;;;;;;;;;;;;34.10;nan;101670.44;5063632;28;19925;-58
2022/11/24 03:52:11;;;;;;;;;;;;;;;34.13;nan;101675.28;5054198;28;19935;-58
2022/11/24 03:54:37;;;;;;;;;;;;;;;34.13;nan;101689.41;5054429;28;20367;-58
2022/11/24 03:57:03;;;;;;;;;;;;;;;33.99;nan;101686.56;5057701;28;19920;-57
2022/11/24 03:59:30;;;;;;;;;;;;;;;33.45;nan;101680.81;5057877;28;20290;-58
2022/11/24 04:01:56;;;;;;;;;;;;;;;33.94;nan;101685.75;5054316;28;19924;-58
2022/11/24 04:04:22;;;;;;;;;;;;;;;33.89;nan;101688.16;5056943;28;20383;-58
2022/11/24 04:06:48;;;;;;;;;;;;;;;33.62;nan;101670.78;5057321;28;20012;-58
2022/11/24 04:09:15;;;;;;;;;;;;;;;33.66;nan;101680.06;5062497;28;19966;-58
2022/11/24 04:14:25;;;;;;;;;;;;;;;34.08;nan;101679.28;5060711;28;20009;-57
2022/11/24 04:16:52;;;;;;;;;;;;;;;34.21;nan;101676.88;5064530;28;19917;-57
2022/11/24 04:19:18;;;;;;;;;;;;;;;33.82;nan;101680.47;5064330;28;19921;-58
2022/11/24 04:21:44;;;;;;;;;;;;;;;33.81;nan;101687.31;5063832;28;20387;-58
2022/11/24 04:24:10;;;;;;;;;;;;;;;33.49;nan;101703.38;5067676;28;19963;-58
2022/11/24 04:26:36;;;;;;;;;;;;;;;33.32;nan;101691.63;5046893;28;20268;-58
2022/11/24 04:29:03;;;;;;;;;;;;;;;33.25;nan;101697.22;5066998;28;20422;-58
2022/11/24 04:31:29;;;;;;;;;;;;;;;33.17;nan;101706.03;5064897;28;20019;-57
2022/11/24 04:33:56;;;;;;;;;;;;;;;32.88;nan;101702.28;5062439;28;19924;-57
2022/11/24 04:36:22;;;;;;;;;;;;;;;32.91;nan;101701.50;5063678;28;19921;-57
2022/11/24 04:38:51;;;;;;;;;;;;;;;33.01;nan;101695.09;5063772;28;19970;-57
2022/11/24 04:41:19;;;;;;;;;;;;;;;33.11;nan;101699.19;5065272;28;19959;-57
2022/11/24 04:43:47;;;;;;;;;;;;;;;33.11;nan;101687.91;5062716;28;19920;-58
2022/11/24 04:46:13;;;;;;;;;;;;;;;33.08;nan;101699.97;5063239;28;19926;-58
2022/11/24 04:48:40;;;;;;;;;;;;;;;33.07;nan;101699.16;5062413;28;19966;-57
2022/11/24 04:51:06;;;;;;;;;;;;;;;32.96;nan;101715.19;5070467;28;19952;-57
2022/11/24 04:53:33;;;;;;;;;;;;;;;32.91;nan;101702.31;5074424;28;19925;-57
2022/11/24 04:56:03;;;;;;;;;;;;;;;32.74;nan;101709.41;5075142;28;19928;-56
2022/11/24 04:58:29;;;;;;;;;;;;;;;32.65;nan;101700.50;5074547;28;19925;-57
2022/11/24 05:00:55;;;;;;;;;;;;;;;32.57;nan;101698.06;5075298;28;19923;-57
2022/11/24 05:03:22;;;;;;;;;;;;;;;32.61;nan;101710.94;5076736;28;19973;-57
2022/11/24 05:05:48;;;;;;;;;;;;;;;32.52;nan;101706.88;5076866;28;20009;-56
2022/11/24 05:08:15;;;;;;;;;;;;;;;32.55;nan;101717.34;5073844;28;19973;-57
2022/11/24 05:10:41;;;;;;;;;;;;;;;32.58;nan;101716.56;5074459;28;19917;-56
2022/11/24 05:13:11;;;;;;;;;;;;;;;32.61;nan;101727.81;5074879;28;19956;-57
2022/11/24 05:15:38;;;;;;;;;;;;;;;32.66;nan;101733.09;5073677;28;19932;-57
2022/11/24 05:18:10;;;;;;;;;;;;;;;32.68;nan;101733.53;5074797;28;19927;-56
2022/11/24 05:20:36;;;;;;;;;;;;;;;32.85;nan;101728.41;5074293;28;19920;-57
2022/11/24 05:23:06;;;;;;;;;;;;;;;32.87;nan;101728.84;5075139;28;19923;-57
2022/11/24 05:25:33;;;;;;;;;;;;;;;32.89;nan;101727.25;5073648;28;19920;-57
2022/11/24 05:28:00;;;;;;;;;;;;;;;32.61;nan;101730.66;5078048;28;19923;-58
2022/11/24 05:30:27;;;;;;;;;;;;;;;31.74;nan;101735.06;5074390;28;19925;-57
2022/11/24 05:32:53;;;;;;;;;;;;;;;31.31;nan;101744.97;5082146;28;20023;-57
2022/11/24 05:35:20;;;;;;;;;;;;;;;30.21;nan;101739.28;5074237;28;20041;-58
2022/11/24 05:37:46;;;;;;;;;;;;;;;30.13;nan;101743.13;5079681;28;20355;-57
2022/11/24 05:40:13;;;;;;;;;;;;;;;30.84;nan;101754.72;5070142;28;20138;-56
2022/11/24 05:42:39;;;;;;;;;;;;;;;30.57;nan;101753.88;5079732;28;19920;-57
2022/11/24 05:45:10;;;;;;;;;;;;;;;31.60;nan;101758.19;5083150;28;19920;-57
2022/11/24 05:47:37;;;;;;;;;;;;;;;32.10;nan;101753.09;5081044;28;19956;-57
2022/11/24 05:50:04;;;;;;;;;;;;;;;32.52;nan;101755.53;5078332;28;19978;-56
2022/11/24 05:52:33;;;;;;;;;;;;;;;32.16;nan;101766.44;5073625;28;21415;-58
2022/11/24 05:55:00;;;;;;;;;;;;;;;32.96;nan;101758.25;5075377;28;19935;-58
2022/11/24 05:57:26;;;;;;;;;;;;;;;33.02;nan;101750.22;5074216;28;19963;-57
2022/11/24 05:59:52;;;;;;;;;;;;;;;33.02;nan;101744.59;5073862;28;19920;-58
2022/11/24 06:02:18;;;;;;;;;;;;;;;32.89;nan;101744.13;5072363;28;19927;-57
2022/11/24 06:04:45;;;;;;;;;;;;;;;33.11;nan;101739.44;5072762;28;19920;-57
2022/11/24 06:07:11;;;;;;;;;;;;;;;33.11;nan;101750.69;5076793;28;19916;-58
2022/11/24 06:09:38;;;;;;;;;;;;;;;33.03;nan;101754.66;5082969;28;19916;-58
2022/11/24 06:12:05;;;;;;;;;;;;;;;32.82;nan;101754.53;5077653;28;19917;-58
2022/11/24 06:14:32;;;;;;;;;;;;;;;32.88;nan;101747.34;5073564;28;19928;-58
2022/11/24 06:16:58;;;;;;;;;;;;;;;32.69;nan;101751.22;5074506;28;19920;-57
2022/11/24 06:19:24;;;;;;;;;;;;;;;32.69;nan;101746.41;5074720;28;20458;-58
2022/11/24 06:21:50;;;;;;;;;;;;;;;32.35;nan;101757.00;5074965;28;20351;-57
2022/11/24 06:24:17;;;;;;;;;;;;;;;32.36;nan;101746.53;5078340;28;19970;-58
2022/11/24 06:26:43;;;;;;;;;;;;;;;32.33;nan;101744.50;5075667;28;19920;-57
2022/11/24 06:29:09;;;;;;;;;;;;;;;32.23;nan;101756.44;5075685;28;19921;-58
2022/11/24 06:31:36;;;;;;;;;;;;;;;32.11;nan;101766.78;5075627;28;19920;-58
2022/11/24 06:34:06;;;;;;;;;;;;;;;32.05;nan;101768.34;5074061;28;19917;-57
2022/11/24 06:36:32;;;;;;;;;;;;;;;31.89;nan;101770.56;5076143;28;19929;-59
2022/11/24 06:39:01;;;;;;;;;;;;;;;31.79;nan;101777.72;5080730;28;19924;-58
2022/11/24 06:41:28;;;;;;;;;;;;;;;31.79;nan;101774.09;5077003;28;19921;-57
2022/11/24 06:43:54;;;;;;;;;;;;;;;31.80;nan;101778.53;5077001;28;19924;-57
2022/11/24 06:46:21;;;;;;;;;;;;;;;31.68;nan;101781.56;5084660;28;19994;-57
2022/11/24 06:48:50;;;;;;;;;;;;;;;31.34;nan;101780.72;5078096;28;20439;-57
2022/11/24 06:51:17;;;;;;;;;;;;;;;31.63;nan;101779.91;5077580;28;19920;-57
2022/11/24 06:53:44;;;;;;;;;;;;;;;31.99;nan;101785.94;5077255;28;19966;-57
2022/11/24 06:56:11;;;;;;;;;;;;;;;32.19;nan;101780.94;5080139;28;19920;-57
2022/11/24 06:58:41;;;;;;;;;;;;;;;32.10;nan;101786.84;5088907;28;19916;-57
2022/11/24 07:01:08;;;;;;;;;;;;;;;32.12;nan;101790.88;5074579;28;19997;-58
2022/11/24 07:03:34;;;;;;;;;;;;;;;32.06;nan;101789.63;5074789;28;19956;-58
2022/11/24 07:06:01;;;;;;;;;;;;;;;31.32;nan;101791.53;5075005;28;19927;-58
2022/11/24 07:08:27;;;;;;;;;;;;;;;31.67;nan;101796.81;5075326;28;19925;-58
2022/11/24 07:10:53;;;;;;;;;;;;;;;32.16;nan;101805.81;5072254;28;20313;-58
2022/11/24 07:13:19;;;;;;;;;;;;;;;32.25;nan;101807.50;5076289;28;19986;-57
2022/11/24 07:15:46;;;;;;;;;;;;;;;31.96;nan;101810.03;5075783;28;19921;-58
2022/11/24 07:18:12;;;;;;;;;;;;;;;31.77;nan;101815.81;5073311;28;19917;-58
2022/11/24 07:20:39;;;;;;;;;;;;;;;31.84;nan;101808.28;5075356;28;19966;-57
2022/11/24 07:23:05;;;;;;;;;;;;;;;31.76;nan;101800.13;5075659;28;19917;-57
2022/11/24 07:25:32;;;;;;;;;;;;;;;31.52;nan;101807.06;5075517;28;19920;-57
2022/11/24 07:27:59;;;;;;;;;;;;;;;31.61;nan;101809.59;5075756;28;19913;-57
2022/11/24 07:30:26;;;;;;;;;;;;;;;31.62;nan;101811.19;5075864;28;20007;-57
2022/11/24 07:32:57;;;;;;;;;;;;;;;31.61;nan;101820.81;5075582;28;19917;-57
2022/11/24 07:35:24;;;;;;;;;;;;;;;31.33;nan;101815.63;5075574;28;20267;-56
2022/11/24 07:37:53;;;;;;;;;;;;;;;31.34;nan;101812.44;5075340;28;19917;-56
2022/11/24 07:40:19;;;;;;;;;;;;;;;31.22;nan;101815.47;5075727;28;20446;-56
2022/11/24 07:42:45;;;;;;;;;;;;;;;31.23;nan;101822.69;5075485;28;19939;-56
2022/11/24 07:45:11;;;;;;;;;;;;;;;31.33;nan;101833.28;5075715;28;20401;-57
2022/11/24 07:47:38;;;;;;;;;;;;;;;31.33;nan;101833.28;5074110;28;20012;-56
2022/11/24 07:50:08;;;;;;;;;;;;;;;31.40;nan;101850.22;5075132;28;19959;-55
2022/11/24 07:52:35;;;;;;;;;;;;;;;31.32;nan;101840.09;5075374;28;19920;-56
2022/11/24 07:55:01;;;;;;;;;;;;;;;30.68;nan;101841.88;5072629;28;19967;-56
2022/11/24 07:57:30;;;;;;;;;;;;;;;31.01;nan;101848.81;5075240;28;19956;-56
2022/11/24 07:59:56;;;;;;;;;;;;;;;30.82;nan;101844.91;5075058;28;20298;-57
2022/11/24 08:02:23;;;;;;;;;;;;;;;31.21;nan;101851.16;5075072;28;20401;-57
2022/11/24 08:04:49;;;;;;;;;;;;;;;30.87;nan;101850.22;5075087;28;19916;-56
2022/11/24 08:07:15;;;;;;;;;;;;;;;31.29;nan;101859.72;5074782;28;19920;-56
2022/11/24 08:09:41;;;;;;;;;;;;;;;31.38;nan;101855.44;5075455;28;19913;-56
2022/11/24 08:12:08;;;;;;;;;;;;;;;31.24;nan;101853.25;5075255;28;19921;-57
2022/11/24 08:14:34;;;;;;;;;;;;;;;30.65;nan;101851.03;5075195;28;19957;-55
2022/11/24 08:17:00;;;;;;;;;;;;;;;31.20;nan;101845.94;5075229;28;19928;-55
2022/11/24 08:19:26;;;;;;;;;;;;;;;31.34;nan;101851.75;5075376;28;19931;-56
2022/11/24 08:21:53;;;;;;;;;;;;;;;31.51;nan;101848.41;5075020;28;19920;-56
2022/11/24 08:24:19;;;;;;;;;;;;;;;31.44;nan;101858.75;5075094;28;19977;-57
2022/11/24 08:26:45;;;;;;;;;;;;;;;31.37;nan;101861.44;5075023;28;20374;-57
2022/11/24 08:29:11;;;;;;;;;;;;;;;31.15;nan;101861.09;5075210;28;19970;-56
2022/11/24 08:31:38;;;;;;;;;;;;;;;31.38;nan;101858.25;5074976;28;19920;-56
2022/11/24 08:34:05;;;;;;;;;;;;;;;31.32;nan;101858.97;5074941;28;19913;-56
2022/11/24 08:36:31;;;;;;;;;;;;;;;31.04;nan;101860.09;5074825;28;20013;-56
2022/11/24 08:38:58;;;;;;;;;;;;;;;31.22;nan;101869.63;5074809;28;19916;-56
2022/11/24 08:41:25;;;;;;;;;;;;;;;31.00;nan;101864.84;5074585;28;20359;-56
2022/11/24 08:43:52;;;;;;;;;;;;;;;31.01;nan;101860.06;5074784;28;19923;-56
2022/11/24 08:46:18;;;;;;;;;;;;;;;31.04;nan;101856.50;5074721;28;19924;-56
2022/11/24 08:48:48;;;;;;;;;;;;;;;30.13;nan;101855.28;5074551;28;19923;-55
2022/11/24 08:51:17;;;;;;;;;;;;;;;30.81;nan;101865.75;5074347;28;19921;-56
2022/11/24 08:53:43;;;;;;;;;;;;;;;31.04;nan;101865.72;5056391;28;20271;-56
2022/11/24 08:56:10;;;;;;;;;;;;;;;30.94;nan;101878.41;5074729;28;19920;-56
2022/11/24 08:58:37;;;;;;;;;;;;;;;30.51;nan;101881.63;5074055;28;19948;-56
2022/11/24 09:01:13;;;;;;;;;;;;;;;30.22;nan;101886.72;5074240;28;19925;-56
2022/11/24 09:03:40;;;;;;;;;;;;;;;29.31;nan;101881.50;5056376;28;19921;-56
2022/11/24 09:06:07;;;;;;;;;;;;;;;29.72;nan;101891.25;5074260;28;19924;-56
2022/11/24 09:08:35;;;;;;;;;;;;;;;30.04;nan;101891.97;5074042;28;19924;-56
2022/11/24 09:11:02;;;;;;;;;;;;;;;30.22;nan;101894.31;5074174;28;20061;-56
2022/11/24 09:13:28;;;;;;;;;;;;;;;30.10;nan;101894.47;5074091;28;19950;-55
2022/11/24 09:15:54;;;;;;;;;;;;;;;29.79;nan;101891.41;5074090;28;19931;-57
2022/11/24 09:18:21;;;;;;;;;;;;;;;30.23;nan;101899.56;5074020;28;19927;-57
2022/11/24 09:20:47;;;;;;;;;;;;;;;29.97;nan;101893.75;5073942;28;19917;-58
2022/11/24 09:23:13;;;;;;;;;;;;;;;30.45;nan;101897.16;5073939;28;19927;-57
2022/11/24 09:25:39;;;;;;;;;;;;;;;30.41;nan;101899.09;5074166;28;20359;-57
2022/11/24 09:28:06;;;;;;;;;;;;;;;30.91;nan;101901.63;5073812;28;19920;-56
2022/11/24 09:30:32;;;;;;;;;;;;;;;30.17;nan;101911.44;5073744;28;19917;-56
2022/11/24 09:32:58;;;;;;;;;;;;;;;31.00;nan;101917.41;5073763;28;19922;-57
2022/11/24 09:35:24;;;;;;;;;;;;;;;31.31;nan;101927.56;5073646;28;20359;-57
2022/11/24 09:37:51;;;;;;;;;;;;;;;31.07;nan;101928.78;5073711;28;20026;-57
2022/11/24 09:40:17;;;;;;;;;;;;;;;31.17;nan;101928.13;5073644;28;20327;-58
2022/11/24 09:42:53;;;;;;;;;;;;;;;31.30;nan;101937.19;5073707;28;20432;-57
2022/11/24 09:45:34;;;;;;;;;;;;;;;31.08;nan;101931.19;5073533;28;19927;-57
2022/11/24 09:48:22;;;;;;;;;;;;;;;31.11;nan;101943.66;5073510;28;20236;-57
2022/11/24 09:50:48;;;;;;;;;;;;;;;31.01;nan;101938.69;5073317;28;19982;-57
2022/11/24 09:53:32;;;;;;;;;;;;;;;30.94;nan;101943.00;5073548;28;19925;-57
2022/11/24 09:56:11;;;;;;;;;;;;;;;30.89;nan;101946.13;5073434;28;20011;-55
2022/11/24 09:58:44;;;;;;;;;;;;;;;30.90;nan;101946.94;5073367;28;19979;-56
2022/11/24 10:01:16;;;;;;;;;;;;;;;30.94;nan;101951.41;5073363;28;19926;-56
2022/11/24 10:03:44;;;;;;;;;;;;;;;30.82;nan;101951.59;5073513;28;19921;-56
2022/11/24 10:06:24;;;;;;;;;;;;;;;30.73;nan;101953.84;5073268;28;19923;-55
2022/11/24 10:09:05;;;;;;;;;;;;;;;30.88;nan;101957.69;5073228;28;20401;-57
2022/11/24 10:11:37;;;;;;;;;;;;;;;30.90;nan;101964.59;5072663;28;19974;-57
2022/11/24 10:14:03;;;;;;;;;;;;;;;31.00;nan;101965.13;5073275;28;19928;-55
2022/11/24 10:16:45;;;;;;;;;;;;;;;31.00;nan;101956.72;5073175;28;19923;-57
2022/11/24 10:19:34;;;;;;;;;;;;;;;31.43;nan;101961.91;5073113;28;19927;-57
2022/11/24 10:22:03;;;;;;;;;;;;;;;31.02;nan;101974.00;5073146;28;20014;-57
2022/11/24 10:24:31;;;;;;;;;;;;;;;31.71;nan;101978.34;5072897;28;19962;-57
2022/11/24 10:27:01;;;;;;;;;;;;;;;31.84;nan;101981.78;5073237;28;20366;-57
2022/11/24 10:29:54;;;;;;;;;;;;;;;31.62;nan;101983.47;5072871;28;19924;-57
2022/11/24 10:32:46;;;;;;;;;;;;;;;31.94;nan;101991.56;5071043;28;20003;-57
2022/11/24 10:35:17;;;;;;;;;;;;;;;32.17;nan;101995.09;5061527;28;19921;-57
2022/11/24 10:37:51;;;;;;;;;;;;;;;32.20;nan;102004.78;5053236;28;19925;-56
2022/11/24 10:40:23;;;;;;;;;;;;;;;32.29;nan;102000.50;5052766;28;19924;-56
2022/11/24 10:42:51;;;;;;;;;;;;;;;31.40;nan;101995.53;5052853;28;19921;-56
2022/11/24 10:45:21;;;;;;;;;;;;;;;31.15;nan;102009.94;5052845;28;19917;-57
2022/11/24 10:47:48;;;;;;;;;;;;;;;31.42;nan;102010.84;5053114;28;19925;-58
2022/11/24 10:50:14;;;;;;;;;;;;;;;30.52;nan;102001.09;5055683;28;19943;-55
2022/11/24 10:52:42;;;;;;;;;;;;;;;30.84;nan;102002.56;5073013;28;19974;-57
2022/11/24 10:55:08;;;;;;;;;;;;;;;29.85;nan;102015.25;5072967;28;19952;-57
2022/11/24 10:57:36;;;;;;;;;;;;;;;30.74;nan;102020.03;5073059;28;19993;-57
2022/11/24 11:00:22;;;;;;;;;;;;;;;31.20;nan;102020.06;5072922;28;19916;-57
2022/11/24 11:02:49;;;;;;;;;;;;;;;30.75;nan;102034.88;5065506;28;19928;-57
2022/11/24 11:05:36;;;;;;;;;;;;;;;31.03;nan;102032.59;5072894;28;20373;-57
2022/11/24 11:08:22;;;;;;;;;;;;;;;31.39;nan;102033.25;5072707;28;19927;-57
2022/11/24 11:10:50;;;;;;;;;;;;;;;31.64;nan;102039.28;5072695;28;20442;-57
2022/11/24 11:13:21;;;;;;;;;;;;;;;31.76;nan;102047.53;5073028;28;19964;-56
2022/11/24 11:15:47;;;;;;;;;;;;;;;32.28;nan;102043.09;5072701;28;19924;-57
2022/11/24 11:18:17;;;;;;;;;;;;;;;32.44;nan;102049.31;5073431;28;20434;-56
2022/11/24 11:20:51;;;;;;;;;;;;;;;32.20;nan;102047.78;5073066;28;20440;-56
2022/11/24 11:23:31;;;;;;;;;;;;;;;32.15;nan;102051.75;5076364;28;19920;-56
2022/11/24 11:26:18;;;;;;;;;;;;;;;31.75;nan;102052.34;5075391;28;19956;-56
2022/11/24 11:29:05;;;;;;;;;;;;;;;31.74;nan;102049.91;5076901;28;19931;-56
2022/11/24 11:31:32;;;;;;;;;;;;;;;31.50;nan;102049.09;5068875;28;19948;-56
2022/11/24 11:33:59;;;;;;;;;;;;;;;30.95;nan;102056.94;5075064;28;19923;-56
2022/11/24 11:36:26;;;;;;;;;;;;;;;30.28;nan;102063.91;5075886;28;19920;-56
2022/11/24 11:38:53;;;;;;;;;;;;;;;31.38;nan;102054.91;5076027;28;19920;-56
2022/11/24 11:41:23;;;;;;;;;;;;;;;31.46;nan;102059.47;5074842;28;20298;-56
2022/11/24 11:43:53;;;;;;;;;;;;;;;31.86;nan;102070.19;5075900;28;19920;-56
2022/11/24 11:46:20;;;;;;;;;;;;;;;32.33;nan;102073.72;5076003;28;19924;-56
2022/11/24 11:48:46;;;;;;;;;;;;;;;32.10;nan;102068.94;5075919;28;19917;-56
2022/11/24 11:51:13;;;;;;;;;;;;;;;32.57;nan;102072.41;5075621;28;19920;-55
2022/11/24 11:53:45;;;;;;;;;;;;;;;32.21;nan;102079.53;5075692;28;19963;-56
2022/11/24 11:56:11;;;;;;;;;;;;;;;32.30;nan;102088.53;5075670;28;19990;-56
2022/11/24 11:58:46;;;;;;;;;;;;;;;31.52;nan;102097.31;5075850;28;19916;-56
2022/11/24 12:01:13;;;;;;;;;;;;;;;31.60;nan;102094.63;5075614;28;19921;-57
2022/11/24 12:03:57;;;;;;;;;;;;;;;31.19;nan;102097.09;5075423;28;19917;-56
2022/11/24 12:06:33;;;;;;;;;;;;;;;32.84;nan;102098.50;5073904;28;19920;-56
2022/11/24 12:08:59;;;;;;;;;;;;;;;31.69;nan;102098.00;5075526;28;19967;-57
2022/11/24 12:11:44;;;;;;;;;;;;;;;32.94;nan;102095.00;5075473;28;19940;-56
2022/11/24 12:14:42;;;;;;;;;;;;;;;31.81;nan;102095.84;5075431;28;19920;-56
2022/11/24 12:17:08;;;;;;;;;;;;;;;31.41;nan;102093.50;5063200;28;19920;-56
2022/11/24 12:19:41;;;;;;;;;;;;;;;30.89;nan;102097.72;5075229;28;20137;-57
2022/11/24 12:22:23;;;;;;;;;;;;;;;31.26;nan;102103.69;5075252;28;20287;-58
2022/11/24 12:24:55;;;;;;;;;;;;;;;32.25;nan;102109.34;5075185;28;20394;-58
2022/11/24 12:27:31;;;;;;;;;;;;;;;30.79;nan;102108.72;5075275;28;19927;-59
2022/11/24 12:29:57;;;;;;;;;;;;;;;31.05;nan;102097.59;5075096;28;20015;-57
2022/11/24 12:32:32;;;;;;;;;;;;;;;30.39;nan;102107.06;5075301;28;19923;-58
2022/11/24 12:35:11;;;;;;;;;;;;;;;30.79;nan;102112.34;5074541;28;20024;-58
2022/11/24 12:37:44;;;;;;;;;;;;;;;31.27;nan;102098.88;5075126;28;20355;-57
2022/11/24 12:40:28;;;;;;;;;;;;;;;30.76;nan;102103.84;5075159;28;20011;-58
2022/11/24 12:43:13;;;;;;;;;;;;;;;30.80;nan;102119.59;5074838;28;19924;-58
2022/11/24 12:45:39;;;;;;;;;;;;;;;30.01;nan;102116.97;5075007;28;19928;-57
2022/11/24 12:48:27;;;;;;;;;;;;;;;31.36;nan;102116.28;5075052;28;19916;-57
2022/11/24 12:50:56;;;;;;;;;;;;;;;32.11;nan;102129.63;5074685;28;19920;-57
2022/11/24 12:53:28;;;;;;;;;;;;;;;30.89;nan;102139.84;5074840;28;19921;-57
2022/11/24 12:55:58;;;;;;;;;;;;;;;31.52;nan;102145.09;5074939;28;19921;-57
2022/11/24 12:58:37;;;;;;;;;;;;;;;33.54;nan;102152.03;5074712;28;19924;-57
2022/11/24 13:01:11;;;;;;;;;;;;;;;33.54;nan;102152.03;5074043;28;19927;-62
2022/11/24 13:03:49;;;;;;;;;;;;;;;32.90;nan;102175.84;5074515;28;19920;-57
2022/11/24 13:06:16;;;;;;;;;;;;;;;31.48;nan;102165.88;5074553;28;19936;-57
2022/11/24 13:08:42;;;;;;;;;;;;;;;32.42;nan;102175.53;5074714;28;20363;-57